Highland Haven, Texas
Current Conditions -  °F | °C
As of 8:35 AM on Saturday 20 Dec 2014 (Local Time) from KDZB Reporting Station
Overcast Overcast  
Wind Chill: 47°   Ceiling: 1500
Heat Index: 47°   Visibility: 10mi
Dew Point: 42°   Wind: 0mph
Humidity: 83%   Direction: NA
Pressure: 30.24"   Gusts: NA
Location:  30.5925°N, 98.2219°W
Report Text: KDZB 201435Z AUTO 00000KT 10SM OVC015 08/06 A3024 RMK AO2 T00820055
Loading
Personal Weather Stations






























Interactive Weather Map New forecast layout! Learn more

10-Day Weather Forecast

Advertisements
Track Severe Weather on mobile